M/V S. J. — WCY2410 — position and weather

sailwx.info

Track history (hours):
 
Tides and Currents Weather Stations Pressure Air Temp Water Temp Dewpoint Dewpoint Depression Visibility Wind Speed Wind Dir Waves Ship Positions

M/V S. J.

Owner: DUPRE BROTHERS CONSTRUCTION COMPANY INC, HOUMA, LA. More information available from US FCC via Universal Licensing System and Coast Guard Vessel Documentation Center.

Last reported at 2017-Oct-16 18:44 UTC. Time now 2017-Oct-17 05:37 UTC.
Position N 29°24' W 090°43'.

Length 15 m; draft 2 m.

Type: Tug. MMSI: 366509000.

Date/timePositionNaut miles runAvg speedWind from/ knotsBaromVisibWave heightAir tempDewpointWater temp
2017-Oct-16 18:44N 29°24' W 090°43'0 0.1
2017-Oct-16 18:23N 29°23' W 090°43'0 0.0
2017-Oct-16 18:00N 29°23' W 090°43'0 0.0
2017-Oct-16 16:25N 29°24' W 090°43'0 0.1
2017-Oct-16 15:52N 29°23' W 090°43'0 0.0
2017-Oct-16 15:17N 29°23' W 090°43'0 0.1
2017-Oct-16 13:30N 29°23' W 090°43'0 0.0
2017-Oct-14 16:41N 29°23' W 090°43'1 0.0
2017-Oct-13 18:04N 29°24' W 090°43'0 0.4
2017-Oct-13 17:57N 29°23' W 090°43'1 0.0
2017-Oct-13 01:45N 29°23' W 090°43'1 3.3
2017-Oct-13 01:26N 29°24' W 090°43'0 0.7
2017-Oct-13 00:59N 29°23' W 090°43'1 1.0
2017-Oct-12 23:35N 29°22' W 090°44'0 5.5
2017-Oct-12 23:30N 29°23' W 090°44'3 5.4
2017-Oct-12 23:00N 29°25' W 090°43'3 5.3
2017-Oct-12 22:30N 29°28' W 090°43'3 5.4
2017-Oct-12 22:00N 29°31' W 090°43'3 5.2
2017-Oct-12 21:30N 29°33' W 090°42'1 2.7
2017-Oct-12 21:00N 29°34' W 090°44'2 4.1
2017-Oct-12 20:30N 29°33' W 090°46'2 4.0
2017-Oct-12 20:00N 29°32' W 090°48'  
2017-Oct-09 16:03N 29°32' W 090°51'1 6.7
2017-Oct-09 15:58N 29°32' W 090°51'3 6.8
2017-Oct-09 15:30N 29°32' W 090°47'3 6.1
2017-Oct-09 15:00N 29°34' W 090°44'2 4.7
2017-Oct-09 14:30N 29°32' W 090°42'4 7.4
2017-Oct-09 14:00N 29°29' W 090°43'6 2.3
2017-Oct-09 11:29N 29°23' W 090°43'1 1.5
2017-Oct-09 10:59N 29°24' W 090°43'0 0.0
2017-Oct-09 10:29N 29°24' W 090°43'0 0.0
2017-Oct-09 10:00N 29°24' W 090°43'0 0.0
2017-Oct-09 09:23N 29°24' W 090°43'  
Track history (hours):
 
Tides and Currents Weather Stations Pressure Air Temp Water Temp Dewpoint Dewpoint Depression Visibility Wind Speed Wind Dir Waves Ship Positions

M/V S. J.

Owner: DUPRE BROTHERS CONSTRUCTION COMPANY INC, HOUMA, LA. More information available from US FCC via Universal Licensing System and Coast Guard Vessel Documentation Center.

Last reported at 2017-Oct-16 18:44 UTC. Time now 2017-Oct-17 05:37 UTC.
Position N 29°24' W 090°43'.

Length 15 m; draft 2 m.

Type: Tug. MMSI: 366509000.

Date/timePositionNaut miles runAvg speedWind from/ knotsBaromVisibWave heightAir tempDewpointWater temp
2017-Oct-16 18:44N 29°24' W 090°43'0 0.1
2017-Oct-16 18:23N 29°23' W 090°43'0 0.0
2017-Oct-16 18:00N 29°23' W 090°43'0 0.0
2017-Oct-16 16:25N 29°24' W 090°43'0 0.1
2017-Oct-16 15:52N 29°23' W 090°43'0 0.0
2017-Oct-16 15:17N 29°23' W 090°43'0 0.1
2017-Oct-16 13:30N 29°23' W 090°43'0 0.0
2017-Oct-14 16:41N 29°23' W 090°43'1 0.0
2017-Oct-13 18:04N 29°24' W 090°43'0 0.4
2017-Oct-13 17:57N 29°23' W 090°43'1 0.0
2017-Oct-13 01:45N 29°23' W 090°43'1 3.3
2017-Oct-13 01:26N 29°24' W 090°43'0 0.7
2017-Oct-13 00:59N 29°23' W 090°43'1 1.0
2017-Oct-12 23:35N 29°22' W 090°44'0 5.5
2017-Oct-12 23:30N 29°23' W 090°44'3 5.4
2017-Oct-12 23:00N 29°25' W 090°43'3 5.3
2017-Oct-12 22:30N 29°28' W 090°43'3 5.4
2017-Oct-12 22:00N 29°31' W 090°43'3 5.2
2017-Oct-12 21:30N 29°33' W 090°42'1 2.7
2017-Oct-12 21:00N 29°34' W 090°44'2 4.1
2017-Oct-12 20:30N 29°33' W 090°46'2 4.0
2017-Oct-12 20:00N 29°32' W 090°48'  
2017-Oct-09 16:03N 29°32' W 090°51'1 6.7
2017-Oct-09 15:58N 29°32' W 090°51'3 6.8
2017-Oct-09 15:30N 29°32' W 090°47'3 6.1
2017-Oct-09 15:00N 29°34' W 090°44'2 4.7
2017-Oct-09 14:30N 29°32' W 090°42'4 7.4
2017-Oct-09 14:00N 29°29' W 090°43'6 2.3
2017-Oct-09 11:29N 29°23' W 090°43'1 1.5
2017-Oct-09 10:59N 29°24' W 090°43'0 0.0
2017-Oct-09 10:29N 29°24' W 090°43'0 0.0
2017-Oct-09 10:00N 29°24' W 090°43'0 0.0
2017-Oct-09 09:23N 29°24' W 090°43'  

Dump ship's entire track history